Huvudsida
METAR-TAF:

METAR-TAF

Flygplatser :

Ouagadougou Airport

Ouagadougou, Burkina Faso

latitud: 12-21N, longitud: 001-31W, höjd: 316 m

Aktuellt väderrapport

Denna rapport gjordes för 32 minuter sedan, klockan 19:00 UTC
Stilla vind
Temperatur 29°C
Fuktighet 37%
Tryck 1008 hPa
Sikt 10 km eller mer
Inga moln under 1 500 m eller inga cumulonimbus

METAR: DFFD 111900Z 00000KT CAVOK 29/13 Q1008 NOSIG

Tid: 19:32 (19:32 UTC)

Väderprognos

Denna rapport gjordes för 2 timmar och 32 minuter sedan, klockan 17:00 UTC
Prognos gäller från 11 kl. 18 UTC till 12 kl. 24 UTC
Vind 10 kt från nord
Sikt 10 km eller mer
Inga moln under 1 500 m eller inga cumulonimbus
Temporärt
från 12 kl. 06 UTC till 12 kl. 10 UTC
Sikt: 2500 m
torrdis
Temporärt
från 12 kl. 16 UTC till 12 kl. 21 UTC
Sikt: 3500 m
torrdis

TAF: DFFD 111700Z 1118/1224 36010KT CAVOK TEMPO 1206/1210 2500 HZ TEMPO 1216/1221 3500 HZ

Aktuella väderrapporter och prognoser från 4000 flygplatser (METAR- och TAF-rapporter).

De tillgängliga stationerna syns som gula och röda prickar på kartan.

För musen över prickarna för att se namnen på stationerna.

Klicka sedan för att få väderrapporter och prognoser.

För att ändra kartan: Klicka på de gröna knapparna med ett svart kors på för att zooma in; den gröna knappen med ett streck på för att zooma ut; eller på de gröna pilarna för angränsande kartor.


METAR-TAF: